createdAt,value
2022-12-17T00:01:40.846Z,2
2022-12-17T00:03:24.545Z,2
2022-12-17T00:05:08.402Z,2
2022-12-17T00:06:51.928Z,3
2022-12-17T00:08:35.745Z,2
2022-12-17T00:10:19.411Z,2
2022-12-17T00:12:03.259Z,2
2022-12-17T00:13:46.992Z,3
2022-12-17T00:15:30.501Z,2
2022-12-17T00:17:14.315Z,2
2022-12-17T00:18:57.848Z,2
2022-12-17T00:20:41.593Z,2
2022-12-17T00:22:25.259Z,2
2022-12-17T00:24:08.951Z,2
2022-12-17T00:25:52.667Z,2
2022-12-17T00:27:36.361Z,2
2022-12-17T00:29:20.070Z,1
2022-12-17T00:31:03.774Z,1
2022-12-17T00:32:47.461Z,2
2022-12-17T00:34:31.168Z,2
2022-12-17T00:36:14.866Z,2
2022-12-17T00:37:58.574Z,2
2022-12-17T00:39:42.350Z,2
2022-12-17T00:41:25.980Z,2
2022-12-17T00:43:09.777Z,2
2022-12-17T00:44:53.536Z,2
2022-12-17T00:46:37.088Z,2
2022-12-17T00:48:20.794Z,2
2022-12-17T00:50:04.544Z,2
2022-12-17T00:51:48.227Z,3
2022-12-17T00:53:31.911Z,2
2022-12-17T00:55:15.694Z,2
2022-12-17T00:56:59.383Z,3
2022-12-17T00:58:43.077Z,2
2022-12-17T01:00:26.727Z,3
2022-12-17T01:02:10.434Z,1
2022-12-17T01:03:54.165Z,2
2022-12-17T01:05:37.880Z,2
2022-12-17T01:07:21.516Z,1
2022-12-17T01:09:05.211Z,3
2022-12-17T01:10:49.058Z,2
2022-12-17T01:12:32.622Z,2
2022-12-17T01:14:16.487Z,3
2022-12-17T01:16:00.025Z,2
2022-12-17T01:17:43.867Z,2
2022-12-17T01:19:27.483Z,2
2022-12-17T01:21:11.237Z,2
2022-12-17T01:22:55.029Z,2
2022-12-17T01:24:38.539Z,1
2022-12-17T01:26:22.412Z,2
2022-12-17T01:28:06.110Z,2
2022-12-17T01:29:49.801Z,2
2022-12-17T01:31:33.375Z,3
2022-12-17T01:33:17.058Z,2
2022-12-17T01:35:00.761Z,2
2022-12-17T01:36:44.470Z,3
2022-12-17T01:38:28.175Z,2
2022-12-17T01:40:11.866Z,3
2022-12-17T01:41:55.575Z,3
2022-12-17T01:43:39.267Z,2
2022-12-17T01:45:22.991Z,3
2022-12-17T01:47:06.687Z,1
2022-12-17T01:48:50.380Z,2
2022-12-17T01:50:34.081Z,2
2022-12-17T01:52:17.782Z,3
2022-12-17T01:54:01.488Z,2
2022-12-17T01:55:45.195Z,2
2022-12-17T01:57:28.890Z,2
2022-12-17T01:59:12.600Z,2
2022-12-17T02:00:56.302Z,2
2022-12-17T02:02:39.997Z,2
2022-12-17T02:04:23.702Z,2
2022-12-17T02:06:07.402Z,2
2022-12-17T02:07:51.114Z,2
2022-12-17T02:09:34.811Z,2
2022-12-17T02:11:18.559Z,2
2022-12-17T02:13:02.214Z,2
2022-12-17T02:14:45.920Z,2
2022-12-17T02:16:29.696Z,2
2022-12-17T02:18:13.328Z,2
2022-12-17T02:19:57.048Z,1
2022-12-17T02:21:40.730Z,2
2022-12-17T02:23:24.430Z,2
2022-12-17T02:25:08.136Z,1
2022-12-17T02:26:51.843Z,2
2022-12-17T02:28:35.547Z,2
2022-12-17T02:30:19.243Z,2
2022-12-17T02:32:02.954Z,2
2022-12-17T02:33:46.645Z,2
2022-12-17T02:35:30.355Z,2
2022-12-17T02:37:14.055Z,2
2022-12-17T02:38:57.748Z,2
2022-12-17T02:40:41.477Z,2
2022-12-17T02:42:25.165Z,2
2022-12-17T02:44:08.866Z,2
2022-12-17T02:45:52.571Z,2
2022-12-17T02:47:36.271Z,2
2022-12-17T02:49:19.975Z,2
2022-12-17T02:51:03.673Z,2
2022-12-17T02:52:47.378Z,2
2022-12-17T02:54:31.079Z,1
2022-12-17T02:56:14.773Z,2
2022-12-17T02:57:58.482Z,2
2022-12-17T02:59:42.203Z,2
2022-12-17T03:01:25.895Z,3
2022-12-17T03:03:09.591Z,2
2022-12-17T03:04:53.311Z,2
2022-12-17T03:06:37.007Z,2
2022-12-17T03:08:20.700Z,2
2022-12-17T03:10:04.404Z,3
2022-12-17T03:11:48.117Z,2
2022-12-17T03:13:31.823Z,2
2022-12-17T03:15:15.520Z,2
2022-12-17T03:16:59.215Z,3
2022-12-17T03:18:42.918Z,2
2022-12-17T03:20:26.630Z,2
2022-12-17T03:22:10.313Z,3
2022-12-17T03:23:54.024Z,2
2022-12-17T03:25:37.730Z,2
2022-12-17T03:27:21.434Z,3
2022-12-17T03:29:05.138Z,2
2022-12-17T03:30:48.837Z,2
2022-12-17T03:32:32.542Z,2
2022-12-17T03:34:16.245Z,2
2022-12-17T03:35:59.943Z,2
2022-12-17T03:37:43.643Z,2
2022-12-17T03:39:27.355Z,2
2022-12-17T03:41:11.050Z,2
2022-12-17T03:42:54.761Z,3
2022-12-17T03:44:38.459Z,2
2022-12-17T03:46:22.163Z,3
2022-12-17T03:48:05.862Z,2
2022-12-17T03:49:49.558Z,2
2022-12-17T03:51:33.257Z,3
2022-12-17T03:53:16.985Z,2
2022-12-17T03:55:00.668Z,3
2022-12-17T03:56:44.375Z,2
2022-12-17T03:58:28.081Z,2
2022-12-17T04:00:11.777Z,2
2022-12-17T04:01:55.484Z,2
2022-12-17T04:03:39.184Z,2
2022-12-17T04:05:22.891Z,2
2022-12-17T04:07:06.592Z,2
2022-12-17T04:08:50.288Z,2
2022-12-17T04:10:33.995Z,3
2022-12-17T04:12:17.703Z,3
2022-12-17T04:14:01.398Z,2
2022-12-17T04:15:45.120Z,2
2022-12-17T04:17:28.845Z,1
2022-12-17T04:19:12.515Z,2
2022-12-17T04:20:56.218Z,2
2022-12-17T04:22:39.919Z,2
2022-12-17T04:24:23.618Z,2
2022-12-17T04:26:07.327Z,2
2022-12-17T04:27:51.020Z,2
2022-12-17T04:29:34.729Z,2
2022-12-17T04:31:18.431Z,2
2022-12-17T04:33:02.136Z,2
2022-12-17T04:34:45.836Z,2
2022-12-17T04:36:29.540Z,3
2022-12-17T04:38:13.240Z,2
2022-12-17T04:39:56.944Z,2
2022-12-17T04:41:40.643Z,2
2022-12-17T04:43:24.342Z,2
2022-12-17T04:45:08.054Z,2
2022-12-17T04:46:51.752Z,2
2022-12-17T04:48:35.460Z,2
2022-12-17T04:50:19.165Z,2
2022-12-17T04:52:02.860Z,2
2022-12-17T04:53:46.571Z,1
2022-12-17T04:55:30.272Z,2
2022-12-17T04:57:13.971Z,2
2022-12-17T04:58:57.698Z,2
2022-12-17T05:00:41.374Z,2
2022-12-17T05:02:25.084Z,3
2022-12-17T05:04:08.792Z,2
2022-12-17T05:05:52.486Z,2
2022-12-17T05:07:36.198Z,2
2022-12-17T05:09:19.889Z,3
2022-12-17T05:11:03.589Z,3
2022-12-17T05:12:47.295Z,2
2022-12-17T05:14:31.315Z,3
2022-12-17T05:16:14.730Z,2
2022-12-17T05:17:58.408Z,1
2022-12-17T05:19:42.102Z,3
2022-12-17T05:21:25.806Z,2
2022-12-17T05:23:09.512Z,2
2022-12-17T05:24:53.209Z,3
2022-12-17T05:26:36.916Z,2
2022-12-17T05:28:20.618Z,2
2022-12-17T05:30:04.321Z,1
2022-12-17T05:31:48.052Z,2
2022-12-17T05:33:31.713Z,2
2022-12-17T05:35:15.431Z,2
2022-12-17T05:36:59.135Z,2
2022-12-17T05:38:42.824Z,3
2022-12-17T05:40:26.537Z,3
2022-12-17T05:42:10.285Z,3
2022-12-17T05:43:53.938Z,1
2022-12-17T05:45:37.640Z,2
2022-12-17T05:47:21.346Z,3
2022-12-17T05:49:05.061Z,2
2022-12-17T05:50:48.754Z,3
2022-12-17T05:52:32.459Z,3
2022-12-17T05:54:16.168Z,3
2022-12-17T05:55:59.861Z,2
2022-12-17T05:57:43.555Z,2
2022-12-17T05:59:27.261Z,2
2022-12-17T06:01:10.967Z,3
2022-12-17T06:02:54.666Z,3
2022-12-17T06:04:38.372Z,2
2022-12-17T06:06:22.074Z,2
2022-12-17T06:08:05.778Z,3
2022-12-17T06:09:49.480Z,2
2022-12-17T06:11:33.179Z,2
2022-12-17T06:13:16.884Z,3
2022-12-17T06:15:00.591Z,2
2022-12-17T06:16:44.289Z,3
2022-12-17T06:18:27.991Z,3
2022-12-17T06:20:11.698Z,3
2022-12-17T06:21:55.400Z,2
2022-12-17T06:23:39.104Z,2
2022-12-17T06:25:22.799Z,2
2022-12-17T06:27:06.507Z,2
2022-12-17T06:28:50.213Z,3
2022-12-17T06:30:33.908Z,3
2022-12-17T06:32:17.606Z,2
2022-12-17T06:34:01.325Z,3
2022-12-17T06:35:45.010Z,2
2022-12-17T06:37:28.729Z,3
2022-12-17T06:39:12.428Z,3
2022-12-17T06:40:56.126Z,3
2022-12-17T06:42:39.835Z,4
2022-12-17T06:44:23.528Z,5
2022-12-17T06:46:07.251Z,5
2022-12-17T06:47:50.948Z,5
2022-12-17T06:49:34.637Z,6
2022-12-17T06:51:18.338Z,7
2022-12-17T06:53:02.049Z,9
2022-12-17T06:54:45.744Z,10
2022-12-17T06:56:29.454Z,11
2022-12-17T06:58:13.157Z,13
2022-12-17T06:59:56.863Z,15
2022-12-17T07:01:40.558Z,17
2022-12-17T07:03:24.254Z,21
2022-12-17T07:05:07.968Z,23
2022-12-17T07:06:51.673Z,27
2022-12-17T07:08:35.380Z,29
2022-12-17T07:10:19.066Z,33
2022-12-17T07:12:02.781Z,37
2022-12-17T07:13:46.482Z,40
2022-12-17T07:15:30.198Z,44
2022-12-17T07:17:13.881Z,48
2022-12-17T07:18:57.577Z,50
2022-12-17T07:20:41.286Z,55
2022-12-17T07:22:24.982Z,58
2022-12-17T07:24:08.851Z,60
2022-12-17T07:25:52.396Z,65
2022-12-17T07:27:36.093Z,68
2022-12-17T07:29:19.795Z,76
2022-12-17T07:31:03.497Z,78
2022-12-17T07:32:47.205Z,83
2022-12-17T07:34:30.901Z,84
2022-12-17T07:36:14.604Z,92
2022-12-17T07:37:58.314Z,102
2022-12-17T07:39:42.012Z,109
2022-12-17T07:41:25.709Z,130
2022-12-17T07:43:09.415Z,134
2022-12-17T07:44:53.124Z,145
2022-12-17T07:46:36.818Z,145
2022-12-17T07:48:20.516Z,150
2022-12-17T07:50:04.227Z,162
2022-12-17T07:51:47.921Z,171
2022-12-17T07:53:31.630Z,177
2022-12-17T07:55:15.336Z,187
2022-12-17T07:56:59.037Z,187
2022-12-17T07:58:42.740Z,195
2022-12-17T08:00:26.440Z,225
2022-12-17T08:02:10.151Z,251
2022-12-17T08:03:53.852Z,265
2022-12-17T08:05:37.552Z,307
2022-12-17T08:07:21.269Z,332
2022-12-17T08:09:04.956Z,412
2022-12-17T08:10:48.658Z,497
2022-12-17T08:12:32.360Z,459
2022-12-17T08:14:16.076Z,502
2022-12-17T08:15:59.763Z,486
2022-12-17T08:17:43.469Z,549
2022-12-17T08:19:27.172Z,541
2022-12-17T08:21:10.871Z,541
2022-12-17T08:22:54.589Z,553
2022-12-17T08:24:38.276Z,509
2022-12-17T08:26:21.987Z,494
2022-12-17T08:28:05.680Z,484
2022-12-17T08:29:49.385Z,515
2022-12-17T08:31:33.091Z,550
2022-12-17T08:33:16.793Z,526
2022-12-17T08:35:00.520Z,525
2022-12-17T08:36:44.204Z,563
2022-12-17T08:38:27.907Z,597
2022-12-17T08:40:11.601Z,596
2022-12-17T08:41:55.307Z,564
2022-12-17T08:43:39.011Z,554
2022-12-17T08:45:22.717Z,574
2022-12-17T08:47:06.416Z,611
2022-12-17T08:48:50.120Z,631
2022-12-17T08:50:33.854Z,619
2022-12-17T08:52:17.519Z,637
2022-12-17T08:54:01.228Z,641
2022-12-17T08:55:44.932Z,673
2022-12-17T08:57:28.638Z,649
2022-12-17T08:59:12.336Z,631
2022-12-17T09:00:56.047Z,668
2022-12-17T09:02:39.735Z,704
2022-12-17T09:04:23.441Z,735
2022-12-17T09:06:07.134Z,725
2022-12-17T09:07:50.925Z,733
2022-12-17T09:09:34.549Z,735
2022-12-17T09:11:18.242Z,737
2022-12-17T09:13:01.954Z,737
2022-12-17T09:14:45.659Z,738
2022-12-17T09:16:29.363Z,737
2022-12-17T09:18:13.066Z,737
2022-12-17T09:19:56.782Z,737
2022-12-17T09:21:40.469Z,738
2022-12-17T09:23:24.169Z,737
2022-12-17T09:25:07.874Z,737
2022-12-17T09:26:51.579Z,738
2022-12-17T09:28:35.283Z,729
2022-12-17T09:30:18.983Z,737
2022-12-17T09:32:02.690Z,736
2022-12-17T09:33:46.384Z,737
2022-12-17T09:35:30.093Z,738
2022-12-17T09:37:13.793Z,738
2022-12-17T09:38:57.509Z,737
2022-12-17T09:40:41.204Z,737
2022-12-17T09:42:24.905Z,738
2022-12-17T09:44:08.605Z,737
2022-12-17T09:45:52.309Z,736
2022-12-17T09:47:36.014Z,736
2022-12-17T09:49:19.716Z,737
2022-12-17T09:51:03.433Z,738
2022-12-17T09:52:47.117Z,737
2022-12-17T09:54:30.823Z,737
2022-12-17T09:56:14.527Z,736
2022-12-17T09:57:58.226Z,738
2022-12-17T09:59:41.931Z,738
2022-12-17T10:01:25.642Z,729
2022-12-17T10:03:09.351Z,737
2022-12-17T10:06:36.751Z,737
2022-12-17T10:08:20.448Z,736
2022-12-17T10:10:04.170Z,737
2022-12-17T10:11:47.863Z,737
2022-12-17T10:13:31.577Z,738
2022-12-17T10:15:15.267Z,729
2022-12-17T10:16:58.966Z,737
2022-12-17T10:18:42.665Z,737
2022-12-17T10:20:26.363Z,738
2022-12-17T10:22:10.061Z,738
2022-12-17T10:23:53.766Z,737
2022-12-17T10:25:37.462Z,736
2022-12-17T10:27:21.189Z,738
2022-12-17T10:29:04.874Z,737
2022-12-17T10:30:48.590Z,737
2022-12-17T10:32:32.278Z,737
2022-12-17T10:34:15.980Z,736
2022-12-17T10:35:59.683Z,737
2022-12-17T10:37:43.388Z,737
2022-12-17T10:39:27.090Z,737
2022-12-17T10:41:10.786Z,737
2022-12-17T10:42:55.862Z,738
2022-12-17T10:44:38.188Z,738
2022-12-17T10:46:21.913Z,737
2022-12-17T10:48:05.601Z,737
2022-12-17T10:49:49.307Z,737
2022-12-17T10:51:33.009Z,737
2022-12-17T10:53:16.715Z,738
2022-12-17T10:55:00.415Z,736
2022-12-17T10:56:44.115Z,737
2022-12-17T10:58:27.811Z,737
2022-12-17T11:00:11.517Z,737
2022-12-17T11:01:55.219Z,727
2022-12-17T11:03:38.926Z,736
2022-12-17T11:05:22.632Z,737
2022-12-17T11:07:06.326Z,738
2022-12-17T11:08:50.043Z,739
2022-12-17T11:10:33.743Z,737
2022-12-17T11:12:17.414Z,737
2022-12-17T11:14:03.280Z,737
2022-12-17T11:16:08.313Z,737
2022-12-17T11:18:13.364Z,738
2022-12-17T11:20:18.412Z,737
2022-12-17T11:22:23.458Z,737
2022-12-17T11:24:29.421Z,736
2022-12-17T11:26:35.491Z,736
2022-12-17T11:28:41.556Z,737
2022-12-17T11:30:47.620Z,736
2022-12-17T11:32:53.686Z,737
2022-12-17T11:34:59.478Z,737
2022-12-17T11:37:04.905Z,736
2022-12-17T11:39:10.986Z,737
2022-12-17T11:41:17.023Z,737
2022-12-17T11:43:23.099Z,738
2022-12-17T11:45:28.440Z,738
2022-12-17T11:47:33.812Z,737
2022-12-17T11:49:40.369Z,736
2022-12-17T11:51:47.461Z,737
2022-12-17T11:53:54.532Z,736
2022-12-17T11:56:01.413Z,738
2022-12-17T11:58:07.476Z,737
2022-12-17T12:00:13.541Z,738
2022-12-17T12:02:19.603Z,737
2022-12-17T12:04:25.674Z,737
2022-12-17T12:06:31.735Z,737
2022-12-17T12:10:43.869Z,738
2022-12-17T12:12:49.932Z,738
2022-12-17T12:14:55.996Z,738
2022-12-17T12:17:02.063Z,736
2022-12-17T12:19:08.123Z,738
2022-12-17T12:21:14.186Z,737
2022-12-17T12:23:20.252Z,737
2022-12-17T12:25:26.312Z,736
2022-12-17T12:27:32.385Z,738
2022-12-17T12:29:38.740Z,738
2022-12-17T12:31:45.829Z,738
2022-12-17T12:33:52.924Z,738
2022-12-17T12:35:59.997Z,736
2022-12-17T12:38:07.078Z,738
2022-12-17T12:40:14.154Z,737
2022-12-17T12:42:21.231Z,737
2022-12-17T12:44:28.312Z,737
2022-12-17T12:46:35.399Z,730
2022-12-17T12:48:42.481Z,738
2022-12-17T12:50:49.552Z,737
2022-12-17T12:52:56.638Z,738
2022-12-17T12:55:03.714Z,737
2022-12-17T12:57:10.797Z,738
2022-12-17T12:59:17.878Z,737
2022-12-17T13:01:24.555Z,737
2022-12-17T13:03:30.623Z,738
2022-12-17T13:05:36.687Z,737
2022-12-17T13:07:42.755Z,738
2022-12-17T13:09:48.811Z,738
2022-12-17T13:11:54.881Z,737
2022-12-17T13:14:00.945Z,738
2022-12-17T13:16:07.014Z,737
2022-12-17T13:18:13.080Z,738
2022-12-17T13:20:19.140Z,737
2022-12-17T13:22:25.209Z,729
2022-12-17T13:24:31.269Z,738
2022-12-17T13:26:37.338Z,738
2022-12-17T13:28:43.407Z,739
2022-12-17T13:30:49.490Z,737
2022-12-17T13:32:55.537Z,731
2022-12-17T13:35:01.595Z,738
2022-12-17T13:37:07.663Z,738
2022-12-17T13:39:13.727Z,738
2022-12-17T13:41:19.809Z,737
2022-12-17T13:43:25.857Z,738
2022-12-17T13:45:31.922Z,738
2022-12-17T13:47:37.985Z,738
2022-12-17T13:49:44.057Z,738
2022-12-17T13:51:50.124Z,738
2022-12-17T13:53:56.229Z,738
2022-12-17T13:56:02.258Z,737
2022-12-17T13:58:08.312Z,737
2022-12-17T14:00:14.390Z,738
2022-12-17T14:02:20.448Z,737
2022-12-17T14:04:26.513Z,738
2022-12-17T14:06:32.580Z,738
2022-12-17T14:08:38.651Z,737
2022-12-17T14:10:44.740Z,729
2022-12-17T14:12:50.767Z,738
2022-12-17T14:14:56.913Z,738
2022-12-17T14:17:02.897Z,738
2022-12-17T14:19:09.173Z,739
2022-12-17T14:21:16.241Z,737
2022-12-17T14:23:23.330Z,738
2022-12-17T14:25:30.230Z,737
2022-12-17T14:27:36.279Z,738
2022-12-17T14:29:42.340Z,738
2022-12-17T14:31:48.410Z,738
2022-12-17T14:33:54.527Z,729
2022-12-17T14:36:00.533Z,738
2022-12-17T14:38:06.615Z,738
2022-12-17T14:40:12.664Z,737
2022-12-17T14:42:18.734Z,738
2022-12-17T14:44:24.796Z,729
2022-12-17T14:46:30.862Z,738
2022-12-17T14:48:36.936Z,737
2022-12-17T14:50:42.984Z,738
2022-12-17T14:52:49.060Z,737
2022-12-17T14:54:55.119Z,677
2022-12-17T14:57:01.183Z,577
2022-12-17T14:59:07.247Z,526
2022-12-17T15:01:13.319Z,453
2022-12-17T15:03:19.378Z,414
2022-12-17T15:05:25.440Z,338
2022-12-17T15:07:31.510Z,270
2022-12-17T15:09:37.572Z,232
2022-12-17T15:11:43.644Z,197
2022-12-17T15:13:49.698Z,178
2022-12-17T15:15:55.766Z,155
2022-12-17T15:18:02.448Z,133
2022-12-17T15:20:09.516Z,106
2022-12-17T15:22:16.621Z,89
2022-12-17T15:24:23.687Z,76
2022-12-17T15:26:30.819Z,64
2022-12-17T15:28:37.761Z,56
2022-12-17T15:30:44.828Z,52
2022-12-17T15:32:51.907Z,46
2022-12-17T15:34:59.013Z,42
2022-12-17T15:37:06.075Z,38
2022-12-17T15:39:13.158Z,35
2022-12-17T15:41:20.245Z,29
2022-12-17T15:43:27.323Z,26
2022-12-17T15:45:34.400Z,22
2022-12-17T15:47:41.474Z,20
2022-12-17T15:49:48.562Z,19
2022-12-17T15:51:55.649Z,17
2022-12-17T15:54:02.740Z,15
2022-12-17T15:56:09.812Z,14
2022-12-17T15:57:55.650Z,13
2022-12-17T15:59:39.354Z,11
2022-12-17T16:01:23.081Z,11
2022-12-17T16:03:06.764Z,10
2022-12-17T16:04:50.456Z,12
2022-12-17T16:06:34.161Z,11
2022-12-17T16:08:17.875Z,10
2022-12-17T16:10:01.557Z,10
2022-12-17T16:11:45.274Z,10
2022-12-17T16:13:28.987Z,11
2022-12-17T16:15:12.708Z,11
2022-12-17T16:16:56.398Z,10
2022-12-17T16:18:40.162Z,10
2022-12-17T16:20:23.782Z,10
2022-12-17T16:22:07.496Z,10
2022-12-17T16:23:51.193Z,10
2022-12-17T16:25:34.893Z,10
2022-12-17T16:27:18.594Z,9
2022-12-17T16:29:02.309Z,10
2022-12-17T16:30:46.004Z,11
2022-12-17T16:32:29.701Z,10
2022-12-17T16:34:13.420Z,10
2022-12-17T16:35:57.124Z,10
2022-12-17T16:37:40.799Z,10
2022-12-17T16:39:24.515Z,19
2022-12-17T16:41:08.216Z,18
2022-12-17T16:42:51.913Z,20
2022-12-17T16:44:35.630Z,19
2022-12-17T16:46:19.332Z,20
2022-12-17T16:48:03.021Z,19
2022-12-17T16:49:46.725Z,18
2022-12-17T16:51:30.431Z,20
2022-12-17T16:53:14.133Z,20
2022-12-17T16:54:57.837Z,20
2022-12-17T16:56:41.531Z,10
2022-12-17T16:58:25.304Z,10
2022-12-17T17:00:08.940Z,11
2022-12-17T17:01:52.640Z,11
2022-12-17T17:03:36.343Z,11
2022-12-17T17:05:20.050Z,11
2022-12-17T17:07:03.754Z,11
2022-12-17T17:08:47.543Z,11
2022-12-17T17:10:31.150Z,11
2022-12-17T17:12:14.905Z,11
2022-12-17T17:13:58.565Z,2
2022-12-17T17:15:42.260Z,3
2022-12-17T17:17:25.967Z,3
2022-12-17T17:19:09.727Z,3
2022-12-17T17:20:53.365Z,3
2022-12-17T17:22:37.073Z,2
2022-12-17T17:24:20.779Z,3
2022-12-17T17:26:04.474Z,3
2022-12-17T17:27:48.184Z,3
2022-12-17T17:29:31.904Z,3
2022-12-17T17:31:15.603Z,3
2022-12-17T17:32:59.297Z,2
2022-12-17T17:34:43.036Z,2
2022-12-17T17:36:26.741Z,3
2022-12-17T17:38:10.398Z,3
2022-12-17T17:39:54.096Z,3
2022-12-17T17:41:37.829Z,2
2022-12-17T17:43:21.508Z,3
2022-12-17T17:45:05.210Z,2
2022-12-17T17:46:48.916Z,2
2022-12-17T17:48:32.603Z,3
2022-12-17T17:50:16.325Z,2
2022-12-17T17:52:00.021Z,2
2022-12-17T17:53:43.724Z,3
2022-12-17T17:55:27.421Z,2
2022-12-17T17:57:11.125Z,2
2022-12-17T17:58:54.827Z,2
2022-12-17T18:00:38.547Z,3
2022-12-17T18:02:22.230Z,3
2022-12-17T18:04:05.939Z,2
2022-12-17T18:05:49.644Z,3
2022-12-17T18:07:33.329Z,2
2022-12-17T18:09:17.044Z,2
2022-12-17T18:11:00.753Z,2
2022-12-17T18:12:44.440Z,3
2022-12-17T18:14:28.143Z,1
2022-12-17T18:16:11.855Z,2
2022-12-17T18:17:55.563Z,1
2022-12-17T18:19:39.266Z,3
2022-12-17T18:21:23.052Z,3
2022-12-17T18:23:06.659Z,3
2022-12-17T18:24:50.365Z,2
2022-12-17T18:26:34.166Z,3
2022-12-17T18:28:17.770Z,3
2022-12-17T18:30:01.474Z,3
2022-12-17T18:31:45.171Z,2
2022-12-17T18:33:28.873Z,3
2022-12-17T18:35:12.603Z,3
2022-12-17T18:36:56.279Z,3
2022-12-17T18:38:39.989Z,3
2022-12-17T18:40:23.688Z,3
2022-12-17T18:42:07.382Z,3
2022-12-17T18:43:51.093Z,3
2022-12-17T18:45:34.812Z,2
2022-12-17T18:47:18.495Z,3
2022-12-17T18:49:02.201Z,3
2022-12-17T18:50:45.911Z,2
2022-12-17T18:52:29.625Z,3
2022-12-17T18:54:13.313Z,3
2022-12-17T18:55:57.130Z,3
2022-12-17T18:57:40.726Z,3
2022-12-17T18:59:24.418Z,3
2022-12-17T19:01:08.116Z,1
2022-12-17T19:02:51.843Z,2
2022-12-17T19:04:35.523Z,2
2022-12-17T19:06:19.227Z,2
2022-12-17T19:08:02.959Z,3
2022-12-17T19:09:46.644Z,2
2022-12-17T19:11:30.359Z,3
2022-12-17T19:13:14.049Z,3
2022-12-17T19:14:57.748Z,3
2022-12-17T19:16:41.473Z,2
2022-12-17T19:18:25.165Z,4
2022-12-17T19:20:08.943Z,3
2022-12-17T19:21:52.587Z,2
2022-12-17T19:23:36.274Z,3
2022-12-17T19:25:19.977Z,3
2022-12-17T19:27:03.668Z,3
2022-12-17T19:28:47.375Z,2
2022-12-17T19:30:31.079Z,3
2022-12-17T19:32:14.774Z,3
2022-12-17T19:33:58.477Z,2
2022-12-17T19:35:42.181Z,2
2022-12-17T19:37:25.882Z,2
2022-12-17T19:39:09.587Z,3
2022-12-17T19:40:53.289Z,3
2022-12-17T19:42:37.069Z,2
2022-12-17T19:44:20.732Z,3
2022-12-17T19:46:04.406Z,2
2022-12-17T19:47:48.149Z,3
2022-12-17T19:49:31.808Z,2
2022-12-17T19:51:15.511Z,3
2022-12-17T19:52:59.206Z,3
2022-12-17T19:54:42.911Z,3
2022-12-17T19:56:26.295Z,3
2022-12-17T19:58:10.014Z,3
2022-12-17T19:59:53.848Z,3
2022-12-17T20:01:37.492Z,4
2022-12-17T20:03:21.117Z,5
2022-12-17T20:05:04.847Z,5
2022-12-17T20:06:48.521Z,5
2022-12-17T20:08:32.227Z,3
2022-12-17T20:10:15.926Z,3
2022-12-17T20:11:59.622Z,3
2022-12-17T20:13:43.330Z,2
2022-12-17T20:15:27.043Z,3
2022-12-17T20:17:10.748Z,3
2022-12-17T20:18:54.439Z,2
2022-12-17T20:20:38.203Z,3
2022-12-17T20:22:21.845Z,2
2022-12-17T20:24:05.561Z,3
2022-12-17T20:25:49.262Z,3
2022-12-17T20:27:32.954Z,3
2022-12-17T20:29:16.659Z,3
2022-12-17T20:31:00.360Z,3
2022-12-17T20:32:44.124Z,3
2022-12-17T20:34:27.761Z,2
2022-12-17T20:36:11.476Z,3
2022-12-17T20:37:55.215Z,3
2022-12-17T20:39:38.923Z,3
2022-12-17T20:41:22.609Z,2
2022-12-17T20:43:06.271Z,3
2022-12-17T20:44:49.979Z,3
2022-12-17T20:46:33.689Z,2
2022-12-17T20:48:17.383Z,3
2022-12-17T20:50:01.092Z,2
2022-12-17T20:51:44.834Z,3
2022-12-17T20:53:28.506Z,2
2022-12-17T20:55:12.214Z,3
2022-12-17T20:56:55.985Z,2
2022-12-17T20:58:39.589Z,3
2022-12-17T21:00:23.304Z,3
2022-12-17T21:02:07.081Z,2
2022-12-17T21:03:50.718Z,3
2022-12-17T21:05:34.406Z,2
2022-12-17T21:09:01.857Z,2
2022-12-17T21:10:45.521Z,2
2022-12-17T21:12:29.227Z,2
2022-12-17T21:14:12.964Z,3
2022-12-17T21:15:56.636Z,3
2022-12-17T21:17:40.343Z,2
2022-12-17T21:19:24.111Z,3
2022-12-17T21:21:07.749Z,2
2022-12-17T21:22:51.450Z,3
2022-12-17T21:24:35.139Z,3
2022-12-17T21:26:18.846Z,3
2022-12-17T21:28:02.563Z,2
2022-12-17T21:29:46.257Z,3
2022-12-17T21:31:29.958Z,3
2022-12-17T21:33:13.708Z,3
2022-12-17T21:34:57.440Z,2
2022-12-17T21:36:41.071Z,3
2022-12-17T21:38:24.786Z,2
2022-12-17T21:40:08.475Z,3
2022-12-17T21:41:52.173Z,2
2022-12-17T21:43:35.873Z,3
2022-12-17T21:45:19.591Z,2
2022-12-17T21:47:03.277Z,2
2022-12-17T21:48:46.983Z,2
2022-12-17T21:50:30.784Z,3
2022-12-17T21:52:14.388Z,3
2022-12-17T21:53:58.108Z,3
2022-12-17T21:55:41.801Z,3
2022-12-17T21:57:25.512Z,3
2022-12-17T21:59:09.199Z,2
2022-12-17T22:00:52.920Z,3
2022-12-17T22:02:36.606Z,2
2022-12-17T22:04:20.315Z,2
2022-12-17T22:06:04.005Z,2
2022-12-17T22:07:47.709Z,2
2022-12-17T22:09:31.413Z,3
2022-12-17T22:11:15.152Z,3
2022-12-17T22:12:58.813Z,3
2022-12-17T22:14:42.536Z,3
2022-12-17T22:16:26.276Z,2
2022-12-17T22:18:09.930Z,3
2022-12-17T22:19:53.637Z,3
2022-12-17T22:21:37.332Z,3
2022-12-17T22:23:21.034Z,3
2022-12-17T22:25:04.734Z,3
2022-12-17T22:26:48.442Z,4
2022-12-17T22:28:32.181Z,3
2022-12-17T22:30:15.840Z,3
2022-12-17T22:31:59.543Z,2
2022-12-17T22:33:43.250Z,3
2022-12-17T22:35:26.949Z,3
2022-12-17T22:37:10.653Z,3
2022-12-17T22:38:54.356Z,3
2022-12-17T22:40:38.073Z,3
2022-12-17T22:42:21.765Z,3
2022-12-17T22:44:05.463Z,3
2022-12-17T22:45:49.181Z,3
2022-12-17T22:47:32.877Z,3
2022-12-17T22:49:16.566Z,3
2022-12-17T22:51:00.273Z,3
2022-12-17T22:52:43.979Z,3
2022-12-17T22:54:27.678Z,3
2022-12-17T22:56:11.389Z,2
2022-12-17T22:57:55.145Z,3
2022-12-17T22:59:38.872Z,3
2022-12-17T23:01:22.494Z,3
2022-12-17T23:03:06.186Z,3
2022-12-17T23:04:49.902Z,2
2022-12-17T23:06:33.596Z,2
2022-12-17T23:08:17.297Z,3
2022-12-17T23:10:01.016Z,2
2022-12-17T23:11:44.729Z,3
2022-12-17T23:13:28.402Z,2
2022-12-17T23:15:12.122Z,2
2022-12-17T23:16:55.806Z,3
2022-12-17T23:18:39.512Z,3
2022-12-17T23:20:23.236Z,3
2022-12-17T23:22:06.921Z,3
2022-12-17T23:23:50.669Z,3
2022-12-17T23:25:34.338Z,2
2022-12-17T23:27:18.027Z,3
2022-12-17T23:29:01.733Z,2
2022-12-17T23:30:45.427Z,2
2022-12-17T23:32:29.146Z,2
2022-12-17T23:34:12.856Z,2
2022-12-17T23:35:56.529Z,3
2022-12-17T23:37:40.239Z,2
2022-12-17T23:39:24.139Z,2
2022-12-17T23:41:07.643Z,3
2022-12-17T23:42:51.354Z,2
2022-12-17T23:44:35.074Z,3
2022-12-17T23:46:18.759Z,3
2022-12-17T23:48:02.479Z,2
2022-12-17T23:49:46.156Z,3
2022-12-17T23:51:29.913Z,2
2022-12-17T23:53:13.559Z,3
2022-12-17T23:54:57.269Z,2
2022-12-17T23:56:41.069Z,3
2022-12-17T23:58:24.665Z,3
